SVA3803 WMKK-OEMA
Flight info
| Callsign | SVA3803 |
|---|---|
| Flight time | N/A |
| Altitude | 34000 |
| Route | PUGER1D PUGER P574 IGEBO/N0478F360 P574 MMV W117 BIA W101W GUNIM N563 NOBOD/N0473F380 N563 REXOD L883 UMILA N569 TOKRA DCT ITRUX Y511 ELONU |
| Aircraft | A333/H-SDE3GHIJ2J3J5M1RVWXY/LB2D1 |
Departure
| Time | 2026-05-08 09:14 |
|---|---|
| Airport | Kuala Lumpur International Airport (WMKK) |
Arrival
| Time | N/A |
|---|---|
| Airport | Prince Mohammad Bin Abdulaziz Airport (OEMA) |
| Time | Latitude | Longitude | Altitude | Speed | Heading |
|---|---|---|---|---|---|
| 2026-05-08 08:49 | 2.75059 | 101.71149 | 77 ft | 0 kts | 146° |
| 2026-05-08 08:59 | 2.75072 | 101.71140 | 65 ft | 4 kts | 148° |
| 2026-05-08 08:59 | 2.75096 | 101.71126 | 69 ft | 4 kts | 148° |
| 2026-05-08 08:59 | 2.75117 | 101.71110 | 75 ft | 3 kts | 132° |
| 2026-05-08 08:59 | 2.75131 | 101.71094 | 76 ft | 4 kts | 112° |
| 2026-05-08 09:00 | 2.75133 | 101.71083 | 76 ft | 3 kts | 57° |
| 2026-05-08 09:00 | 2.75119 | 101.71062 | 65 ft | 3 kts | 56° |
| 2026-05-08 09:00 | 2.75117 | 101.71060 | 65 ft | 3 kts | 56° |
| 2026-05-08 09:02 | 2.75118 | 101.71060 | 76 ft | 1 kts | 56° |
| 2026-05-08 09:02 | 2.75125 | 101.71071 | 76 ft | 3 kts | 56° |
| 2026-05-08 09:03 | 2.75141 | 101.71095 | 69 ft | 5 kts | 56° |
| 2026-05-08 09:03 | 2.75170 | 101.71138 | 74 ft | 9 kts | 56° |
| 2026-05-08 09:03 | 2.75202 | 101.71185 | 68 ft | 8 kts | 56° |
| 2026-05-08 09:03 | 2.75231 | 101.71228 | 65 ft | 7 kts | 56° |
| 2026-05-08 09:04 | 2.75259 | 101.71269 | 65 ft | 8 kts | 56° |
| 2026-05-08 09:04 | 2.75287 | 101.71311 | 66 ft | 7 kts | 56° |
| 2026-05-08 09:04 | 2.75314 | 101.71350 | 74 ft | 7 kts | 56° |
| 2026-05-08 09:04 | 2.75346 | 101.71398 | 69 ft | 9 kts | 56° |
| 2026-05-08 09:05 | 2.75386 | 101.71459 | 66 ft | 12 kts | 56° |
| 2026-05-08 09:05 | 2.75438 | 101.71530 | 64 ft | 12 kts | 43° |
| 2026-05-08 09:05 | 2.75499 | 101.71530 | 73 ft | 8 kts | 333° |
| 2026-05-08 09:05 | 2.75541 | 101.71504 | 73 ft | 8 kts | 327° |
| 2026-05-08 09:06 | 2.75592 | 101.71470 | 67 ft | 10 kts | 327° |
| 2026-05-08 09:06 | 2.75659 | 101.71427 | 71 ft | 13 kts | 326° |
| 2026-05-08 09:06 | 2.75736 | 101.71375 | 67 ft | 14 kts | 326° |
| 2026-05-08 09:06 | 2.75823 | 101.71315 | 75 ft | 16 kts | 326° |
| 2026-05-08 09:07 | 2.75912 | 101.71256 | 68 ft | 15 kts | 326° |
| 2026-05-08 09:07 | 2.75998 | 101.71198 | 65 ft | 15 kts | 326° |
| 2026-05-08 09:07 | 2.76078 | 101.71144 | 71 ft | 13 kts | 326° |
| 2026-05-08 09:07 | 2.76151 | 101.71095 | 73 ft | 12 kts | 326° |
| 2026-05-08 09:08 | 2.76222 | 101.71047 | 67 ft | 12 kts | 326° |
| 2026-05-08 09:08 | 2.76294 | 101.70999 | 69 ft | 12 kts | 326° |
| 2026-05-08 09:08 | 2.76367 | 101.70950 | 70 ft | 13 kts | 326° |
| 2026-05-08 09:08 | 2.76445 | 101.70898 | 69 ft | 13 kts | 326° |
| 2026-05-08 09:09 | 2.76516 | 101.70851 | 68 ft | 11 kts | 326° |
| 2026-05-08 09:09 | 2.76577 | 101.70810 | 58 ft | 11 kts | 326° |
| 2026-05-08 09:09 | 2.76644 | 101.70765 | 67 ft | 12 kts | 326° |
| 2026-05-08 09:09 | 2.76714 | 101.70718 | 70 ft | 12 kts | 326° |
| 2026-05-08 09:10 | 2.76797 | 101.70662 | 70 ft | 15 kts | 326° |
| 2026-05-08 09:10 | 2.76881 | 101.70606 | 66 ft | 15 kts | 326° |
| 2026-05-08 09:10 | 2.76973 | 101.70545 | 61 ft | 17 kts | 326° |
| 2026-05-08 09:10 | 2.77075 | 101.70477 | 63 ft | 19 kts | 326° |
| 2026-05-08 09:11 | 2.77196 | 101.70396 | 64 ft | 22 kts | 326° |
| 2026-05-08 09:11 | 2.77326 | 101.70308 | 67 ft | 23 kts | 326° |
| 2026-05-08 09:11 | 2.77463 | 101.70215 | 59 ft | 24 kts | 326° |
| 2026-05-08 09:11 | 2.77591 | 101.70129 | 60 ft | 20 kts | 326° |
| 2026-05-08 09:12 | 2.77698 | 101.70065 | 64 ft | 15 kts | 344° |
| 2026-05-08 09:12 | 2.77776 | 101.70101 | 67 ft | 11 kts | 48° |
| 2026-05-08 09:12 | 2.77814 | 101.70157 | 60 ft | 8 kts | 64° |
| 2026-05-08 09:12 | 2.77812 | 101.70198 | 62 ft | 4 kts | 113° |
| 2026-05-08 09:13 | 2.77794 | 101.70221 | 68 ft | 5 kts | 135° |
| 2026-05-08 09:13 | 2.77767 | 101.70242 | 68 ft | 0 kts | 146° |
| 2026-05-08 09:13 | 2.77709 | 101.70281 | 60 ft | 33 kts | 146° |
| 2026-05-08 09:13 | 2.77353 | 101.70521 | 58 ft | 89 kts | 146° |
| 2026-05-08 09:14 | 2.76696 | 101.70961 | 71 ft | 138 kts | 146° |
| 2026-05-08 09:14 | 2.75770 | 101.71585 | 84 ft | 182 kts | 146° |
| 2026-05-08 09:14 | 2.74671 | 101.72305 | 649 ft | 184 kts | 147° |
| 2026-05-08 09:14 | 2.73609 | 101.73012 | 1443 ft | 183 kts | 145° |
| 2026-05-08 09:15 | 2.72564 | 101.73691 | 1858 ft | 194 kts | 143° |
| 2026-05-08 09:15 | 2.71654 | 101.74756 | 2051 ft | 213 kts | 115° |
| 2026-05-08 09:15 | 2.71068 | 101.76187 | 2248 ft | 232 kts | 110° |
| 2026-05-08 09:15 | 2.70784 | 101.77835 | 2454 ft | 251 kts | 86° |
| 2026-05-08 09:16 | 2.71343 | 101.79511 | 2839 ft | 261 kts | 53° |
| 2026-05-08 09:16 | 2.72769 | 101.80602 | 3233 ft | 270 kts | 19° |
| 2026-05-08 09:16 | 2.74650 | 101.80761 | 3681 ft | 277 kts | 351° |
| 2026-05-08 09:16 | 2.76526 | 101.80369 | 4301 ft | 277 kts | 346° |
| 2026-05-08 09:17 | 2.78420 | 101.79917 | 4941 ft | 279 kts | 346° |
| 2026-05-08 09:17 | 2.80304 | 101.79471 | 5562 ft | 279 kts | 343° |
| 2026-05-08 09:17 | 2.82083 | 101.78669 | 6188 ft | 282 kts | 327° |
| 2026-05-08 09:17 | 2.83632 | 101.77483 | 6810 ft | 283 kts | 315° |
| 2026-05-08 09:18 | 2.84798 | 101.75949 | 7363 ft | 284 kts | 298° |
| 2026-05-08 09:18 | 2.85649 | 101.74156 | 7911 ft | 287 kts | 293° |
| 2026-05-08 09:18 | 2.86407 | 101.72279 | 8485 ft | 290 kts | 291° |
| 2026-05-08 09:18 | 2.87137 | 101.70385 | 9031 ft | 293 kts | 291° |
| 2026-05-08 09:19 | 2.87859 | 101.68476 | 9560 ft | 294 kts | 290° |
| 2026-05-08 09:19 | 2.88584 | 101.66549 | 10088 ft | 297 kts | 291° |
| 2026-05-08 09:19 | 2.89322 | 101.64604 | 10392 ft | 310 kts | 291° |
| 2026-05-08 09:19 | 2.90102 | 101.62542 | 10621 ft | 324 kts | 291° |
| 2026-05-08 09:20 | 2.90912 | 101.60383 | 10831 ft | 338 kts | 291° |
| 2026-05-08 09:20 | 2.91751 | 101.58139 | 11032 ft | 352 kts | 291° |
| 2026-05-08 09:20 | 2.92628 | 101.55800 | 11233 ft | 365 kts | 291° |
| 2026-05-08 09:20 | 2.93535 | 101.53397 | 11575 ft | 373 kts | 291° |
| 2026-05-08 09:21 | 2.94448 | 101.50962 | 12034 ft | 376 kts | 291° |
| 2026-05-08 09:21 | 2.95373 | 101.48491 | 12537 ft | 379 kts | 291° |
| 2026-05-08 09:22 | 3.01072 | 101.33258 | 15208 ft | 400 kts | 291° |
| 2026-05-08 09:23 | 3.02049 | 101.30644 | 15630 ft | 403 kts | 291° |
| 2026-05-08 09:23 | 3.03033 | 101.28014 | 16024 ft | 406 kts | 291° |
| 2026-05-08 09:23 | 3.04031 | 101.25354 | 16439 ft | 409 kts | 291° |
| 2026-05-08 09:23 | 3.05018 | 101.22711 | 16831 ft | 412 kts | 291° |
| 2026-05-08 09:24 | 3.06022 | 101.20018 | 17210 ft | 415 kts | 291° |
| 2026-05-08 09:24 | 3.07038 | 101.17306 | 17588 ft | 418 kts | 291° |
| 2026-05-08 09:24 | 3.08064 | 101.14577 | 17955 ft | 420 kts | 291° |
| 2026-05-08 09:24 | 3.09094 | 101.11831 | 18280 ft | 424 kts | 291° |
| 2026-05-08 09:25 | 3.10135 | 101.09065 | 18616 ft | 426 kts | 291° |
| 2026-05-08 09:25 | 3.11176 | 101.06284 | 18948 ft | 428 kts | 291° |
| 2026-05-08 09:25 | 3.12221 | 101.03487 | 19284 ft | 430 kts | 291° |
| 2026-05-08 09:25 | 3.13272 | 101.00675 | 19587 ft | 433 kts | 291° |
| 2026-05-08 09:26 | 3.14328 | 100.97843 | 19906 ft | 435 kts | 291° |
| 2026-05-08 09:26 | 3.15390 | 100.95004 | 20209 ft | 438 kts | 291° |
| 2026-05-08 09:26 | 3.16461 | 100.92138 | 20524 ft | 439 kts | 291° |
| 2026-05-08 09:26 | 3.17536 | 100.89266 | 20823 ft | 442 kts | 291° |
| 2026-05-08 09:27 | 3.18618 | 100.86375 | 21116 ft | 444 kts | 291° |
| 2026-05-08 09:27 | 3.19689 | 100.83514 | 21380 ft | 446 kts | 291° |
| 2026-05-08 09:27 | 3.20777 | 100.80600 | 21626 ft | 448 kts | 291° |
| 2026-05-08 09:27 | 3.21871 | 100.77682 | 21836 ft | 451 kts | 291° |
| 2026-05-08 09:28 | 3.22980 | 100.74718 | 22100 ft | 453 kts | 291° |
| 2026-05-08 09:28 | 3.24083 | 100.71766 | 22378 ft | 456 kts | 291° |
| 2026-05-08 09:28 | 3.25192 | 100.68793 | 22688 ft | 457 kts | 291° |
| 2026-05-08 09:28 | 3.26311 | 100.65796 | 22941 ft | 458 kts | 291° |
| 2026-05-08 09:29 | 3.27426 | 100.62811 | 23195 ft | 460 kts | 291° |
| 2026-05-08 09:29 | 3.28554 | 100.59791 | 23398 ft | 463 kts | 291° |
| 2026-05-08 09:29 | 3.29680 | 100.56777 | 23642 ft | 465 kts | 291° |
| 2026-05-08 09:29 | 3.30818 | 100.53732 | 23878 ft | 467 kts | 291° |
| 2026-05-08 09:30 | 3.31955 | 100.50688 | 24111 ft | 468 kts | 291° |
| 2026-05-08 09:30 | 3.33095 | 100.47626 | 24335 ft | 470 kts | 291° |
| 2026-05-08 09:30 | 3.34242 | 100.44552 | 24585 ft | 472 kts | 291° |
| 2026-05-08 09:30 | 3.35394 | 100.41467 | 24850 ft | 473 kts | 291° |
| 2026-05-08 09:31 | 3.36547 | 100.38385 | 25109 ft | 473 kts | 291° |
| 2026-05-08 09:31 | 3.37703 | 100.35292 | 25312 ft | 476 kts | 291° |
| 2026-05-08 09:31 | 3.38865 | 100.32175 | 25551 ft | 478 kts | 291° |
| 2026-05-08 09:31 | 3.40115 | 100.29101 | 25814 ft | 477 kts | 296° |
| 2026-05-08 09:32 | 3.41587 | 100.26115 | 26042 ft | 478 kts | 298° |
| 2026-05-08 09:32 | 3.43153 | 100.23179 | 26280 ft | 479 kts | 300° |
| 2026-05-08 09:32 | 3.44748 | 100.20287 | 26455 ft | 480 kts | 300° |
| 2026-05-08 09:32 | 3.46386 | 100.17367 | 26629 ft | 483 kts | 300° |
| 2026-05-08 09:33 | 3.48054 | 100.14395 | 26870 ft | 484 kts | 300° |
| 2026-05-08 09:33 | 3.49695 | 100.11452 | 27087 ft | 485 kts | 300° |
| 2026-05-08 09:33 | 3.51309 | 100.08532 | 27330 ft | 486 kts | 300° |
| 2026-05-08 09:33 | 3.52939 | 100.05564 | 27520 ft | 487 kts | 299° |
| 2026-05-08 09:34 | 3.54518 | 100.02562 | 27717 ft | 488 kts | 298° |
| 2026-05-08 09:34 | 3.56053 | 99.99529 | 27848 ft | 490 kts | 297° |
| 2026-05-08 09:34 | 3.57549 | 99.96518 | 28086 ft | 491 kts | 297° |
| 2026-05-08 09:34 | 3.59015 | 99.93561 | 28318 ft | 492 kts | 297° |
| 2026-05-08 09:35 | 3.60543 | 99.90485 | 28507 ft | 493 kts | 297° |
| 2026-05-08 09:35 | 3.62079 | 99.87404 | 28707 ft | 495 kts | 297° |
| 2026-05-08 09:35 | 3.63621 | 99.84327 | 28951 ft | 495 kts | 297° |
| 2026-05-08 09:35 | 3.65179 | 99.81237 | 29111 ft | 497 kts | 297° |
| 2026-05-08 09:36 | 3.66744 | 99.78137 | 29177 ft | 500 kts | 297° |
| 2026-05-08 09:36 | 3.68311 | 99.75031 | 29284 ft | 503 kts | 297° |
| 2026-05-08 09:36 | 3.69894 | 99.71894 | 29450 ft | 504 kts | 297° |
| 2026-05-08 09:36 | 3.71475 | 99.68760 | 29625 ft | 505 kts | 297° |
| 2026-05-08 09:37 | 3.73062 | 99.65611 | 29809 ft | 505 kts | 297° |
| 2026-05-08 09:37 | 3.74622 | 99.62519 | 30077 ft | 504 kts | 297° |
| 2026-05-08 09:37 | 3.76201 | 99.59388 | 30319 ft | 503 kts | 297° |
| 2026-05-08 09:37 | 3.77775 | 99.56262 | 30557 ft | 503 kts | 297° |
| 2026-05-08 09:38 | 3.79342 | 99.53149 | 30776 ft | 503 kts | 297° |
| 2026-05-08 09:38 | 3.80925 | 99.50007 | 30985 ft | 502 kts | 297° |
| 2026-05-08 09:38 | 3.82497 | 99.46888 | 31196 ft | 502 kts | 297° |
| 2026-05-08 09:38 | 3.84074 | 99.43760 | 31432 ft | 501 kts | 297° |
| 2026-05-08 09:39 | 3.85641 | 99.40653 | 31682 ft | 500 kts | 297° |
| 2026-05-08 09:39 | 3.87206 | 99.37548 | 31892 ft | 499 kts | 297° |
| 2026-05-08 09:39 | 3.88774 | 99.34439 | 32110 ft | 500 kts | 297° |
| 2026-05-08 09:39 | 3.90340 | 99.31332 | 32448 ft | 498 kts | 297° |
| 2026-05-08 09:40 | 3.91898 | 99.28244 | 32636 ft | 498 kts | 297° |
| 2026-05-08 09:40 | 3.93454 | 99.25151 | 32790 ft | 498 kts | 297° |
| 2026-05-08 09:40 | 3.95013 | 99.22044 | 32977 ft | 498 kts | 297° |
| 2026-05-08 09:40 | 3.96568 | 99.18947 | 33183 ft | 497 kts | 297° |
| 2026-05-08 09:41 | 3.98100 | 99.15900 | 33371 ft | 497 kts | 296° |
| 2026-05-08 09:41 | 3.99660 | 99.12800 | 33601 ft | 497 kts | 296° |
| 2026-05-08 09:41 | 4.01222 | 99.09703 | 33758 ft | 497 kts | 296° |
| 2026-05-08 09:42 | 4.04310 | 99.03549 | 33780 ft | 493 kts | 296° |
| 2026-05-08 09:42 | 4.07389 | 98.97415 | 33769 ft | 492 kts | 296° |
| 2026-05-08 09:43 | 4.10479 | 98.91269 | 33780 ft | 493 kts | 296° |
| 2026-05-08 09:43 | 4.13563 | 98.85145 | 33773 ft | 492 kts | 296° |
| 2026-05-08 09:44 | 4.16625 | 98.79063 | 33782 ft | 491 kts | 297° |
| 2026-05-08 09:44 | 4.19711 | 98.72953 | 33781 ft | 493 kts | 296° |
| 2026-05-08 09:45 | 4.22785 | 98.66828 | 33781 ft | 491 kts | 296° |
| 2026-05-08 09:45 | 4.25846 | 98.60711 | 33780 ft | 492 kts | 296° |
| 2026-05-08 09:46 | 4.28927 | 98.54569 | 33778 ft | 493 kts | 296° |
| 2026-05-08 09:46 | 4.32015 | 98.48418 | 33779 ft | 492 kts | 296° |
| 2026-05-08 09:47 | 4.35074 | 98.42378 | 33779 ft | 486 kts | 296° |
| 2026-05-08 09:47 | 4.38118 | 98.36247 | 33786 ft | 502 kts | 295° |
| 2026-05-08 09:48 | 4.41173 | 98.30087 | 33780 ft | 492 kts | 296° |
| 2026-05-08 09:48 | 4.44246 | 98.23990 | 33763 ft | 491 kts | 296° |
| 2026-05-08 09:49 | 4.47329 | 98.17872 | 33781 ft | 492 kts | 296° |
| 2026-05-08 09:49 | 4.50427 | 98.11717 | 33780 ft | 498 kts | 296° |
| 2026-05-08 09:50 | 4.53022 | 98.06541 | 33913 ft | 501 kts | 296° |
| 2026-05-08 09:50 | 4.56679 | 97.99240 | 34019 ft | 506 kts | 296° |
| 2026-05-08 09:51 | 4.59304 | 97.93995 | 34274 ft | 505 kts | 296° |
| 2026-05-08 09:51 | 4.60880 | 97.90845 | 34434 ft | 505 kts | 296° |
| 2026-05-08 09:51 | 4.62452 | 97.87703 | 34604 ft | 504 kts | 296° |
| 2026-05-08 09:51 | 4.64011 | 97.84585 | 34749 ft | 504 kts | 296° |
| 2026-05-08 09:52 | 4.65576 | 97.81445 | 34935 ft | 503 kts | 296° |
| 2026-05-08 09:52 | 4.67143 | 97.78317 | 35083 ft | 502 kts | 296° |
| 2026-05-08 09:52 | 4.68711 | 97.75186 | 35242 ft | 501 kts | 296° |
| 2026-05-08 09:52 | 4.70280 | 97.72055 | 35381 ft | 501 kts | 296° |
| 2026-05-08 09:53 | 4.71842 | 97.68924 | 35530 ft | 501 kts | 296° |
| 2026-05-08 09:53 | 4.73402 | 97.65803 | 35655 ft | 500 kts | 296° |
| 2026-05-08 09:53 | 4.74962 | 97.62692 | 35757 ft | 501 kts | 296° |
| 2026-05-08 09:54 | 4.78064 | 97.56491 | 35784 ft | 495 kts | 296° |
| 2026-05-08 09:54 | 4.81154 | 97.50317 | 35789 ft | 494 kts | 296° |
| 2026-05-08 09:55 | 4.84732 | 97.43145 | 35788 ft | 495 kts | 296° |
| 2026-05-08 09:55 | 4.87293 | 97.38014 | 35787 ft | 495 kts | 297° |
| 2026-05-08 09:56 | 4.90374 | 97.31853 | 35783 ft | 495 kts | 297° |
| 2026-05-08 09:56 | 4.93458 | 97.25681 | 35789 ft | 494 kts | 297° |
| 2026-05-08 09:57 | 4.98073 | 97.16432 | 35786 ft | 494 kts | 297° |
| 2026-05-08 09:57 | 5.01152 | 97.10272 | 35788 ft | 494 kts | 297° |
| 2026-05-08 09:58 | 5.04228 | 97.04118 | 35786 ft | 493 kts | 297° |
| 2026-05-08 09:58 | 5.07296 | 96.97971 | 35787 ft | 493 kts | 297° |
| 2026-05-08 09:59 | 5.10362 | 96.91815 | 35793 ft | 492 kts | 297° |
| 2026-05-08 09:59 | 5.13420 | 96.85649 | 35793 ft | 493 kts | 297° |
| 2026-05-08 10:00 | 5.16486 | 96.79496 | 35793 ft | 493 kts | 297° |
| 2026-05-08 10:00 | 5.19558 | 96.73330 | 35798 ft | 494 kts | 297° |
| 2026-05-08 10:01 | 5.22618 | 96.67199 | 35796 ft | 493 kts | 297° |
| 2026-05-08 10:01 | 5.25686 | 96.61042 | 35798 ft | 493 kts | 297° |
| 2026-05-08 10:02 | 5.28747 | 96.54889 | 35788 ft | 493 kts | 296° |
| 2026-05-08 10:02 | 5.31805 | 96.48746 | 35797 ft | 492 kts | 297° |
| 2026-05-08 10:03 | 5.34868 | 96.42592 | 35793 ft | 492 kts | 297° |
| 2026-05-08 10:03 | 5.37933 | 96.36449 | 35798 ft | 491 kts | 297° |
| 2026-05-08 10:04 | 5.40963 | 96.30362 | 35798 ft | 492 kts | 297° |
| 2026-05-08 10:04 | 5.44013 | 96.24209 | 35802 ft | 493 kts | 297° |
| 2026-05-08 10:05 | 5.47066 | 96.18060 | 35806 ft | 491 kts | 297° |
| 2026-05-08 10:05 | 5.50116 | 96.11917 | 35807 ft | 492 kts | 297° |
| 2026-05-08 10:06 | 5.53168 | 96.05789 | 35802 ft | 491 kts | 297° |
| 2026-05-08 10:06 | 5.56209 | 95.99653 | 35805 ft | 491 kts | 297° |
| 2026-05-08 10:07 | 5.59250 | 95.93511 | 35805 ft | 491 kts | 297° |
| 2026-05-08 10:07 | 5.62298 | 95.87369 | 35803 ft | 492 kts | 297° |
| 2026-05-08 10:08 | 5.65346 | 95.81230 | 35805 ft | 491 kts | 297° |
| 2026-05-08 10:08 | 5.68369 | 95.75128 | 35806 ft | 492 kts | 297° |
| 2026-05-08 10:09 | 5.71405 | 95.68981 | 35803 ft | 491 kts | 297° |
| 2026-05-08 10:09 | 5.74456 | 95.62819 | 35805 ft | 491 kts | 297° |
| 2026-05-08 10:10 | 5.77500 | 95.56680 | 35805 ft | 492 kts | 297° |
| 2026-05-08 10:10 | 5.80527 | 95.50568 | 35802 ft | 492 kts | 297° |
| 2026-05-08 10:11 | 5.83581 | 95.44410 | 35804 ft | 491 kts | 297° |
| 2026-05-08 10:11 | 5.86631 | 95.38259 | 35806 ft | 491 kts | 297° |
| 2026-05-08 10:12 | 5.89655 | 95.32142 | 35804 ft | 492 kts | 297° |
| 2026-05-08 10:12 | 5.92688 | 95.25987 | 35803 ft | 492 kts | 297° |
| 2026-05-08 10:13 | 5.95738 | 95.19823 | 35806 ft | 492 kts | 297° |
| 2026-05-08 10:13 | 5.98777 | 95.13664 | 35807 ft | 491 kts | 297° |
| 2026-05-08 10:14 | 6.01802 | 95.07544 | 35806 ft | 493 kts | 297° |
| 2026-05-08 10:14 | 6.04854 | 95.01366 | 35806 ft | 492 kts | 297° |
| 2026-05-08 10:15 | 6.07897 | 94.95190 | 35805 ft | 493 kts | 297° |
| 2026-05-08 10:15 | 6.10935 | 94.89031 | 35804 ft | 492 kts | 297° |
| 2026-05-08 10:16 | 6.13976 | 94.82867 | 35805 ft | 492 kts | 297° |